Weather at Boston Scientific Natick Heliport

Public forecast

Using degrees Fahrenheit for public forecast. Weather courtesy of forecast.io.

Closest aviation weather report (METAR) to Boston Scientific Natick Heliport

Closest report is Laurence G Hanscom Field, 10.6 nm (19.7 km) NNE. Retrieved 2020/09/29 11:51 UTC (36 minutes ago):

KBED 291151Z 20003KT 10SM BKN013 19/17 A2994 RMK AO2 SLP148 T01890167 10189 20167 53003

Closest aviation forecast (TAF) to Boston Scientific Natick Heliport

Closest forecast is Laurence G Hanscom Field, 10.6 nm (19.7 km) NNE. Retrieved 2020/09/29 12:24 UTC (3 minutes ago):

TAF KBED 291122Z 2912/3012 17005KT P6SM OVC012 FM291300 18006KT P6SM BKN015 FM291400 18006KT P6SM BKN150 FM300000 17008KT P6SM BKN025 FM300200 17007KT 5SM BR BKN015 FM300400 16008KT 3SM BR VCSH OVC008